Time;durP1;ratioP1;P1;durP2;ratioP2;P2;SDS_P1;SDS_P2;PMS_P1;PMS_P2;Temp;Humidity;BMP_temperature;BMP_pressure;BME280_temperature;BME280_humidity;BME280_pressure;Samples;Min_cycle;Max_cycle;Signal;HPM_P1;HPM_P2
2022/01/17 00:00:27;;;;;;;10.85;3.20;;;;;;;0.73;71.02;101953.49;1874735;76;21468;-60
2022/01/17 00:02:56;;;;;;;4.65;2.47;;;;;;;0.74;71.05;101952.23;1875464;76;21621;-59
2022/01/17 00:05:24;;;;;;;5.53;2.42;;;;;;;0.78;70.98;101949.72;1880521;76;21069;-61
2022/01/17 00:07:53;;;;;;;6.58;2.55;;;;;;;0.81;70.92;101944.57;1880590;76;21481;-59
2022/01/17 00:10:22;;;;;;;4.53;2.33;;;;;;;0.81;70.99;101938.95;1880578;75;21135;-59
2022/01/17 00:12:53;;;;;;;6.30;3.22;;;;;;;0.85;71.00;101937.30;1880598;76;21472;-60
2022/01/17 00:15:27;;;;;;;7.80;3.77;;;;;;;0.85;70.99;101942.09;1886814;75;21073;-58
2022/01/17 00:18:08;;;;;;;8.10;3.00;;;;;;;0.87;70.96;101935.64;1879217;76;21522;-59
2022/01/17 00:20:26;;;;;;;8.20;3.37;;;;;;;0.87;70.93;101931.32;1853587;77;21022;-60
2022/01/17 00:22:53;;;;;;;5.78;3.02;;;;;;;0.88;70.92;101923.11;1869330;76;21052;-58
2022/01/17 00:25:22;;;;;;;4.87;2.77;;;;;;;0.88;70.93;101915.33;1890855;76;21482;-58
2022/01/17 00:27:51;;;;;;;10.78;2.83;;;;;;;0.88;70.97;101910.14;1890957;76;21016;-58
2022/01/17 00:30:20;;;;;;;7.90;3.30;;;;;;;0.88;70.98;101904.95;1891015;76;21474;-60
2022/01/17 00:32:49;;;;;;;5.50;2.12;;;;;;;0.87;70.98;101908.41;1891031;76;21599;-60
2022/01/17 00:35:17;;;;;;;7.42;2.60;;;;;;;0.87;70.95;101900.64;1890877;76;21056;-59
2022/01/17 00:37:46;;;;;;;6.95;2.20;;;;;;;0.87;71.00;101905.82;1890854;76;21476;-60
2022/01/17 00:40:15;;;;;;;7.35;1.75;;;;;;;0.82;71.12;101920.41;1890809;76;21412;-59
2022/01/17 00:42:44;;;;;;;7.03;2.08;;;;;;;0.78;71.19;101914.28;1890628;76;21492;-59
2022/01/17 00:45:14;;;;;;;5.17;2.35;;;;;;;0.78;71.17;101908.23;1886919;76;21498;-60
2022/01/17 00:47:44;;;;;;;6.15;3.35;;;;;;;0.78;71.21;101916.02;1890392;76;21032;-60
2022/01/17 00:50:13;;;;;;;9.18;2.98;;;;;;;0.77;71.26;101912.52;1890820;76;21063;-59
2022/01/17 00:52:41;;;;;;;11.45;4.05;;;;;;;0.78;71.24;101909.53;1890735;76;21052;-59
2022/01/17 00:55:11;;;;;;;8.33;4.05;;;;;;;0.81;71.24;101913.45;1889793;76;21056;-59
2022/01/17 00:57:40;;;;;;;7.45;3.42;;;;;;;0.82;71.18;101917.38;1890023;76;21145;-58
2022/01/17 01:00:10;;;;;;;3.50;2.17;;;;;;;0.86;71.13;101918.32;1889980;76;21075;-59
2022/01/17 01:02:40;;;;;;;6.67;2.75;;;;;;;0.87;71.07;101923.97;1890036;76;21098;-57
2022/01/17 01:05:10;;;;;;;3.83;2.08;;;;;;;0.85;71.07;101921.74;1889886;76;21114;-58
2022/01/17 01:07:39;;;;;;;7.47;4.30;;;;;;;0.84;71.04;101921.31;1889891;76;21064;-57
2022/01/17 01:10:13;;;;;;;8.60;4.25;;;;;;;0.81;71.09;101918.64;1889949;76;21032;-58
2022/01/17 01:12:40;;;;;;;8.98;6.45;;;;;;;0.81;71.10;101922.53;1887315;76;21084;-58
2022/01/17 01:15:14;;;;;;;9.40;6.03;;;;;;;0.81;71.12;101916.91;1888762;76;21086;-59
2022/01/17 01:17:51;;;;;;;12.18;6.50;;;;;;;0.83;71.17;101911.77;1882308;76;21057;-59
2022/01/17 01:28:25;;;;;;;8.85;4.37;;;;;;;0.86;71.14;101900.17;1833693;78;21095;-59
2022/01/17 01:30:56;;;;;;;11.28;5.22;;;;;;;0.83;71.22;101897.11;1833812;78;21114;-59
2022/01/17 01:33:33;;;;;;;9.10;6.08;;;;;;;0.81;71.22;101901.36;1833802;78;21110;-58
2022/01/17 01:36:03;;;;;;;15.15;11.12;;;;;;;0.79;71.30;101895.27;1832709;78;21115;-58
2022/01/17 01:38:28;;;;;;;18.70;10.90;;;;;;;0.79;71.33;101882.73;1856443;77;21110;-58
2022/01/17 01:40:56;;;;;;;26.45;16.05;;;;;;;0.77;71.28;101876.22;1866280;77;21125;-58
2022/01/17 01:43:25;;;;;;;7.87;4.55;;;;;;;0.77;71.24;101877.52;1866277;77;21245;-58
2022/01/17 01:46:00;;;;;;;5.60;3.20;;;;;;;0.76;71.20;101881.84;1866518;77;21554;-57
2022/01/17 01:48:25;;;;;;;6.08;3.20;;;;;;;0.71;71.20;101872.22;1864458;76;21043;-57
2022/01/17 01:50:54;;;;;;;6.93;2.40;;;;;;;0.64;71.39;101868.63;1866342;77;21539;-57
2022/01/17 01:53:23;;;;;;;5.62;2.95;;;;;;;0.61;71.48;101875.06;1866310;77;21039;-59
2022/01/17 01:55:57;;;;;;;4.62;2.77;;;;;;;0.62;71.39;101878.52;1865027;77;21509;-58
2022/01/17 01:58:27;;;;;;;5.35;2.00;;;;;;;0.63;71.32;101883.74;1866332;77;21059;-58
2022/01/17 02:00:56;;;;;;;6.53;2.70;;;;;;;0.62;71.31;101881.98;1866458;76;21059;-58
2022/01/17 02:03:25;;;;;;;7.95;3.55;;;;;;;0.65;71.27;101887.67;1854581;77;21554;-58
2022/01/17 02:05:54;;;;;;;6.67;3.67;;;;;;;0.66;71.21;101881.63;1851079;77;21066;-59
2022/01/17 02:08:22;;;;;;;7.42;3.70;;;;;;;0.67;71.14;101888.14;1851069;77;21218;-59
2022/01/17 02:10:51;;;;;;;9.90;4.40;;;;;;;0.68;71.12;101886.02;1851033;77;21541;-58
2022/01/17 02:13:20;;;;;;;8.35;4.10;;;;;;;0.69;71.16;101882.98;1833407;77;21562;-59
2022/01/17 02:15:49;;;;;;;12.98;3.90;;;;;;;0.69;71.23;101886.88;1843517;77;21077;-57
2022/01/17 02:18:29;;;;;;;8.98;4.17;;;;;;;0.71;71.25;101882.16;1843761;78;21054;-58
2022/01/17 02:21:31;;;;;;;11.85;3.90;;;;;;;0.72;71.18;101876.15;1807251;78;21150;-58
2022/01/17 02:23:47;;;;;;;7.45;3.05;;;;;;;0.70;71.17;101872.66;1809147;78;21575;-57
2022/01/17 02:26:18;;;;;;;5.20;2.85;;;;;;;0.69;71.15;101867.44;1885179;76;21160;-57
2022/01/17 02:28:49;;;;;;;3.67;2.00;;;;;;;0.64;71.18;101868.63;1885248;76;21128;-58
2022/01/17 02:31:19;;;;;;;5.55;2.70;;;;;;;0.60;71.17;101860.34;1885197;76;21538;-57
2022/01/17 02:33:53;;;;;;;6.47;2.62;;;;;;;0.58;71.16;101858.14;1899273;74;21022;-58
2022/01/17 02:36:19;;;;;;;6.67;2.25;;;;;;;0.53;71.22;101861.06;1927096;74;21116;-57
2022/01/17 02:38:48;;;;;;;6.05;2.55;;;;;;;0.52;71.24;101867.10;1928059;74;21514;-57
2022/01/17 02:41:17;;;;;;;7.47;2.55;;;;;;;0.53;71.28;101867.11;1908205;74;21116;-58
2022/01/17 02:43:47;;;;;;;4.90;2.40;;;;;;;0.55;71.25;101859.37;1887915;76;21468;-57
2022/01/17 02:46:25;;;;;;;3.33;1.30;;;;;;;0.52;71.25;101870.56;1888109;76;21042;-57
2022/01/17 02:48:56;;;;;;;5.33;2.20;;;;;;;0.51;71.22;101869.23;1888002;76;21042;-58
2022/01/17 02:51:25;;;;;;;4.12;1.52;;;;;;;0.49;71.22;101874.80;1905226;74;21006;-58
2022/01/17 02:53:54;;;;;;;4.22;1.92;;;;;;;0.49;71.18;101869.62;1927993;74;21010;-58
2022/01/17 02:56:24;;;;;;;3.65;2.00;;;;;;;0.48;71.12;101870.45;1928194;74;21026;-57
2022/01/17 02:58:53;;;;;;;3.42;2.10;;;;;;;0.49;71.10;101874.80;1928090;74;21062;-57
2022/01/17 03:01:24;;;;;;;5.78;2.12;;;;;;;0.47;71.10;101873.91;1927409;74;21104;-58
2022/01/17 03:03:53;;;;;;;1.47;1.05;;;;;;;0.46;71.08;101870.45;1926529;74;21070;-58
2022/01/17 03:06:22;;;;;;;6.25;2.00;;;;;;;0.50;71.04;101877.83;1926361;74;21552;-57
2022/01/17 03:08:51;;;;;;;5.28;2.60;;;;;;;0.50;71.04;101871.35;1926373;74;21480;-58
2022/01/17 03:11:23;;;;;;;6.85;3.98;;;;;;;0.46;71.07;101865.66;1926544;74;21053;-58
2022/01/17 03:13:52;;;;;;;5.35;2.77;;;;;;;0.46;71.07;101864.36;1926244;74;21096;-57
2022/01/17 03:16:32;;;;;;;6.10;3.85;;;;;;;0.45;71.08;101865.22;1924629;74;21070;-58
2022/01/17 03:19:00;;;;;;;9.50;3.67;;;;;;;0.42;71.14;101865.16;1914388;75;21010;-57
2022/01/17 03:21:32;;;;;;;12.75;3.98;;;;;;;0.38;71.18;101862.48;1914693;75;21096;-57
2022/01/17 03:23:59;;;;;;;9.35;3.87;;;;;;;0.35;71.36;101867.63;1915748;75;21010;-58
2022/01/17 03:26:30;;;;;;;9.40;3.47;;;;;;;0.31;71.41;101864.92;1916208;75;21463;-58
2022/01/17 03:29:01;;;;;;;8.08;4.05;;;;;;;0.31;71.39;101862.33;1916190;75;21053;-56
2022/01/17 03:31:30;;;;;;;8.28;3.98;;;;;;;0.31;71.37;101870.97;1915514;74;21125;-57
2022/01/17 03:33:59;;;;;;;9.93;4.62;;;;;;;0.31;71.38;101866.22;1915030;75;21010;-57
2022/01/17 03:36:28;;;;;;;11.05;5.70;;;;;;;0.30;71.37;101864.05;1914627;75;21502;-58
2022/01/17 03:38:57;;;;;;;6.55;3.15;;;;;;;0.29;71.42;101872.66;1914599;75;21054;-59
2022/01/17 03:41:26;;;;;;;8.80;3.50;;;;;;;0.26;71.43;101863.94;1914553;75;21112;-58
2022/01/17 03:43:55;;;;;;;7.58;4.10;;;;;;;0.27;71.40;101871.75;1915309;75;21013;-58
2022/01/17 03:46:24;;;;;;;6.08;2.85;;;;;;;0.27;71.39;101870.88;1916159;75;21227;-57
2022/01/17 03:48:53;;;;;;;7.50;2.62;;;;;;;0.25;71.46;101868.25;1916141;75;21053;-57
2022/01/17 03:51:22;;;;;;;9.20;3.33;;;;;;;0.24;71.44;101874.30;1915040;75;21518;-58
2022/01/17 03:53:51;;;;;;;9.60;2.98;;;;;;;0.22;71.47;101868.18;1914555;75;21034;-58
2022/01/17 03:56:19;;;;;;;7.22;2.92;;;;;;;0.22;71.44;101868.61;1914623;75;21030;-58
2022/01/17 03:58:49;;;;;;;7.12;2.83;;;;;;;0.21;71.42;101870.34;1914697;75;21085;-59
2022/01/17 04:01:19;;;;;;;7.42;3.35;;;;;;;0.22;71.43;101873.79;1914719;75;20991;-60
2022/01/17 04:03:48;;;;;;;9.83;4.97;;;;;;;0.20;71.43;101869.87;1914577;75;21558;-58
2022/01/17 04:06:17;;;;;;;7.15;3.33;;;;;;;0.21;71.43;101871.63;1914616;75;21123;-58
2022/01/17 04:08:46;;;;;;;13.95;4.47;;;;;;;0.20;71.38;101869.87;1914644;75;21546;-58
2022/01/17 04:11:14;;;;;;;8.25;3.58;;;;;;;0.17;71.45;101867.23;1914419;75;21002;-57
2022/01/17 04:13:43;;;;;;;3.95;1.92;;;;;;;0.14;71.52;101866.72;1914555;74;21112;-57
2022/01/17 04:16:13;;;;;;;9.53;3.27;;;;;;;0.10;71.60;101866.64;1914551;75;21066;-58
2022/01/17 04:18:42;;;;;;;11.45;3.77;;;;;;;0.09;71.66;101869.66;1914537;74;21078;-58
2022/01/17 04:21:11;;;;;;;9.70;3.25;;;;;;;0.08;71.71;101872.21;1914540;75;21485;-61
2022/01/17 04:23:40;;;;;;;10.98;3.60;;;;;;;0.08;71.74;101872.21;1915858;75;21850;-59
2022/01/17 04:26:09;;;;;;;14.78;4.70;;;;;;;0.11;71.67;101864.09;1916186;75;21111;-59
2022/01/17 04:28:37;;;;;;;12.47;6.62;;;;;;;0.16;71.56;101870.64;1916331;75;21045;-57
2022/01/17 04:31:06;;;;;;;18.87;8.95;;;;;;;0.18;71.49;101864.68;1916142;75;21037;-57
2022/01/17 04:33:35;;;;;;;12.80;6.97;;;;;;;0.20;71.53;101868.57;1915895;75;21128;-57
2022/01/17 04:36:06;;;;;;;9.73;4.62;;;;;;;0.20;71.44;101864.69;1916091;75;21081;-60
2022/01/17 04:38:35;;;;;;;13.58;4.92;;;;;;;0.17;71.52;101865.51;1916209;75;21504;-59
2022/01/17 04:41:12;;;;;;;13.60;5.30;;;;;;;0.15;71.54;101859.85;1916128;75;21476;-58
2022/01/17 04:46:10;;;;;;;8.15;4.15;;;;;;;0.14;71.55;101861.97;1916239;75;21014;-58
2022/01/17 04:48:39;;;;;;;8.85;4.22;;;;;;;0.15;71.48;101858.55;1916025;74;21116;-59
2022/01/17 04:51:08;;;;;;;11.57;4.80;;;;;;;0.18;71.42;101863.39;1916157;75;21455;-58
2022/01/17 04:53:39;;;;;;;10.82;4.87;;;;;;;0.21;71.37;101862.56;1915921;75;21463;-58
2022/01/17 04:56:08;;;;;;;9.43;4.12;;;;;;;0.24;71.36;101864.33;1916164;75;21104;-58
2022/01/17 04:58:36;;;;;;;11.38;4.03;;;;;;;0.25;71.31;101857.03;1916370;75;21033;-59
2022/01/17 05:01:05;;;;;;;4.17;2.20;;;;;;;0.26;71.29;101860.95;1914927;75;21041;-58
2022/01/17 05:03:35;;;;;;;9.48;3.50;;;;;;;0.27;71.33;101863.98;1916506;75;21480;-59
2022/01/17 05:06:04;;;;;;;8.70;3.17;;;;;;;0.29;71.30;101862.30;1916342;75;21100;-58
2022/01/17 05:08:33;;;;;;;8.60;3.47;;;;;;;0.30;71.24;101856.28;1916226;75;21495;-59
2022/01/17 05:11:01;;;;;;;7.35;3.40;;;;;;;0.31;71.24;101852.83;1916001;75;21518;-59
2022/01/17 05:13:34;;;;;;;10.08;3.83;;;;;;;0.35;71.19;101858.95;1916391;75;21179;-60
2022/01/17 05:16:14;;;;;;;8.18;2.95;;;;;;;0.34;71.14;101859.81;1916333;73;21034;-59
2022/01/17 05:21:13;;;;;;;9.63;3.72;;;;;;;0.36;71.05;101858.13;1914780;74;21077;-59
2022/01/17 05:23:42;;;;;;;11.30;3.77;;;;;;;0.35;71.02;101857.27;1914743;75;21106;-58
2022/01/17 05:26:11;;;;;;;6.45;2.60;;;;;;;0.36;71.00;101859.42;1914501;75;21034;-58
2022/01/17 05:28:39;;;;;;;7.55;4.22;;;;;;;0.34;71.00;101861.97;1914647;75;21112;-58
2022/01/17 05:31:10;;;;;;;7.58;3.87;;;;;;;0.32;70.97;101861.07;1891598;75;21090;-57
2022/01/17 05:33:38;;;;;;;9.45;5.25;;;;;;;0.34;70.93;101856.80;1882582;76;21026;-57
2022/01/17 05:36:07;;;;;;;7.47;4.37;;;;;;;0.36;70.87;101858.13;1878031;76;21011;-58
2022/01/17 05:38:36;;;;;;;7.40;4.75;;;;;;;0.40;70.79;101860.36;1880064;76;21478;-57
2022/01/17 05:41:04;;;;;;;7.78;3.80;;;;;;;0.43;70.70;101859.14;1880551;76;21063;-57
2022/01/17 05:43:33;;;;;;;6.10;3.55;;;;;;;0.44;70.66;101862.16;1856172;76;21067;-58
2022/01/17 05:46:02;;;;;;;6.80;3.35;;;;;;;0.46;70.62;101860.48;1837606;78;21067;-57
2022/01/17 05:48:31;;;;;;;8.48;3.52;;;;;;;0.51;70.59;101865.34;1837493;78;21213;-58
2022/01/17 05:50:59;;;;;;;10.55;3.10;;;;;;;0.53;70.56;101858.03;1866210;76;21461;-58
2022/01/17 05:53:28;;;;;;;9.55;3.37;;;;;;;0.55;70.52;101860.66;1888161;76;21050;-58
2022/01/17 05:55:57;;;;;;;4.90;2.30;;;;;;;0.58;70.49;101851.66;1888030;76;21035;-58
2022/01/17 05:58:25;;;;;;;4.72;2.33;;;;;;;0.60;70.37;101849.97;1888019;76;21059;-58
2022/01/17 06:00:54;;;;;;;5.03;2.50;;;;;;;0.61;70.28;101847.84;1867019;75;21605;-59
2022/01/17 06:03:25;;;;;;;7.65;2.15;;;;;;;0.66;70.02;101847.92;1849758;77;21058;-57
2022/01/17 06:05:54;;;;;;;4.50;1.50;;;;;;;0.69;69.94;101854.04;1849457;77;21046;-57
2022/01/17 06:08:23;;;;;;;5.95;2.50;;;;;;;0.75;69.91;101856.74;1849571;77;21488;-57
2022/01/17 06:10:52;;;;;;;5.67;2.95;;;;;;;0.78;69.61;101852.06;1849555;77;21492;-59
2022/01/17 06:13:20;;;;;;;6.53;2.40;;;;;;;0.81;69.45;101846.05;1849513;77;21528;-59
2022/01/17 06:15:49;;;;;;;4.72;1.70;;;;;;;0.86;69.38;101855.66;1852153;76;21116;-59
2022/01/17 06:21:07;;;;;;;3.15;1.57;;;;;;;0.93;69.20;101848.45;1843329;77;21057;-59
2022/01/17 06:23:36;;;;;;;2.58;1.42;;;;;;;0.99;69.22;101854.16;1843228;78;20999;-59
2022/01/17 06:26:05;;;;;;;3.45;1.42;;;;;;;1.05;68.99;101854.30;1843176;78;21023;-57
2022/01/17 06:28:34;;;;;;;6.03;1.27;;;;;;;1.10;68.71;101850.03;1843145;78;21058;-57
2022/01/17 06:31:02;;;;;;;4.15;1.52;;;;;;;1.19;68.60;101848.47;1843427;78;21686;-57
2022/01/17 06:33:31;;;;;;;3.22;1.10;;;;;;;1.25;68.21;101843.37;1843074;76;21449;-57
2022/01/17 06:36:00;;;;;;;1.85;1.00;;;;;;;1.33;68.04;101836.61;1843105;78;21544;-57
2022/01/17 06:38:29;;;;;;;3.98;1.52;;;;;;;1.40;68.02;101834.53;1843071;78;21473;-57
2022/01/17 06:40:58;;;;;;;3.37;0.70;;;;;;;1.48;67.97;101828.20;1843027;78;21531;-58
2022/01/17 06:43:26;;;;;;;2.12;0.88;;;;;;;1.57;67.74;101831.34;1842976;78;21038;-57
2022/01/17 06:45:55;;;;;;;3.22;1.07;;;;;;;1.61;67.48;101833.16;1843587;78;21038;-57
2022/01/17 06:48:24;;;;;;;5.45;1.47;;;;;;;1.64;67.41;101831.89;1842844;78;21132;-58
2022/01/17 06:50:53;;;;;;;1.60;0.90;;;;;;;1.68;67.31;101827.22;1843029;78;21066;-58
2022/01/17 06:53:26;;;;;;;5.33;1.20;;;;;;;1.73;67.24;101822.94;1842881;78;21460;-58
2022/01/17 06:55:52;;;;;;;1.77;1.02;;;;;;;1.76;66.86;101813.91;1842674;78;21055;-60
2022/01/17 06:58:20;;;;;;;3.77;1.50;;;;;;;1.81;66.96;101804.46;1843214;78;21090;-60
2022/01/17 07:00:50;;;;;;;3.33;1.20;;;;;;;1.89;67.06;101785.95;1842916;78;21168;-59
2022/01/17 07:03:18;;;;;;;4.53;1.37;;;;;;;2.02;67.01;101774.00;1843045;78;21034;-58
2022/01/17 07:05:47;;;;;;;3.05;1.30;;;;;;;2.15;66.76;101754.67;1843068;78;21073;-59
2022/01/17 07:08:16;;;;;;;2.72;1.37;;;;;;;2.28;66.60;101735.32;1842645;78;21512;-60
2022/01/17 07:10:45;;;;;;;2.17;1.02;;;;;;;2.36;66.48;101715.05;1843202;78;21531;-58
2022/01/17 07:13:14;;;;;;;4.62;1.12;;;;;;;2.40;66.29;101712.51;1842884;78;21073;-58
2022/01/17 07:15:42;;;;;;;3.92;1.60;;;;;;;2.43;66.31;101711.66;1842960;76;21022;-58
2022/01/17 07:18:12;;;;;;;17.30;2.12;;;;;;;2.54;66.33;101721.73;1843068;78;21508;-58
2022/01/17 07:20:41;;;;;;;7.33;1.70;;;;;;;2.65;65.90;101744.80;1846605;77;21130;-58
2022/01/17 07:23:09;;;;;;;2.95;1.37;;;;;;;2.70;65.43;101780.84;1846046;77;21007;-58
2022/01/17 07:25:38;;;;;;;3.72;1.30;;;;;;;2.80;65.18;101831.65;1841386;77;21048;-58
2022/01/17 07:28:09;;;;;;;1.65;1.10;;;;;;;2.89;65.12;101877.27;1836716;78;21031;-57
2022/01/17 07:30:38;;;;;;;3.60;1.67;;;;;;;3.04;65.08;101929.91;1837088;77;21027;-58
2022/01/17 07:33:07;;;;;;;3.45;1.47;;;;;;;3.19;65.02;101953.92;1842785;77;21100;-54
2022/01/17 07:35:37;;;;;;;3.40;1.30;;;;;;;3.31;64.82;101925.42;1838655;78;21501;-55
2022/01/17 07:38:06;;;;;;;6.92;2.35;;;;;;;3.38;64.73;101905.10;1841645;78;21030;-52
2022/01/17 07:40:35;;;;;;;1.72;1.15;;;;;;;3.42;64.68;101888.64;1845866;77;21062;-54
2022/01/17 07:43:04;;;;;;;4.10;1.62;;;;;;;3.48;64.62;101848.77;1846146;77;21526;-53
2022/01/17 07:45:33;;;;;;;5.28;1.42;;;;;;;3.44;64.50;101814.02;1846373;77;21452;-53
2022/01/17 07:50:35;;;;;;;4.20;1.30;;;;;;;3.41;64.28;101774.95;1844139;77;21521;-56
2022/01/17 07:53:04;;;;;;;4.12;1.40;;;;;;;3.48;64.27;101770.20;1841679;77;21461;-55
2022/01/17 07:55:33;;;;;;;4.08;1.30;;;;;;;3.65;64.23;101748.20;1845442;78;21502;-53
2022/01/17 07:58:02;;;;;;;4.35;1.27;;;;;;;3.81;64.17;101723.52;1844807;78;21043;-54
2022/01/17 08:00:31;;;;;;;2.70;1.52;;;;;;;3.92;64.08;101707.50;1837255;78;21112;-54
2022/01/17 08:02:59;;;;;;;4.17;1.75;;;;;;;4.04;64.02;101704.09;1836877;78;21152;-53
2022/01/17 08:05:28;;;;;;;6.87;2.95;;;;;;;4.20;63.84;101705.84;1837679;77;21043;-53
2022/01/17 08:07:56;;;;;;;9.38;3.45;;;;;;;4.31;63.72;101688.92;1841357;77;21047;-55
2022/01/17 08:10:25;;;;;;;8.90;3.08;;;;;;;4.38;63.36;101662.45;1836677;78;21185;-55
2022/01/17 08:12:54;;;;;;;2.50;1.20;;;;;;;4.75;62.73;101675.06;1836835;77;21479;-56
2022/01/17 08:15:24;;;;;;;2.45;1.20;;;;;;;4.72;62.35;101660.73;1836777;77;21573;-55
2022/01/17 08:17:54;;;;;;;2.70;1.00;;;;;;;4.57;62.48;101643.31;1836971;77;21031;-55
2022/01/17 08:20:22;;;;;;;3.37;1.27;;;;;;;4.42;62.69;101664.18;1837251;77;21115;-55
2022/01/17 08:22:51;;;;;;;5.75;1.30;;;;;;;4.29;62.51;101657.22;1836073;78;21114;-55
2022/01/17 08:25:20;;;;;;;5.03;1.22;;;;;;;4.23;62.63;101638.08;1836076;78;21177;-55
2022/01/17 08:27:48;;;;;;;4.80;1.65;;;;;;;4.20;62.55;101656.31;1836061;78;21059;-55
2022/01/17 08:30:17;;;;;;;3.65;1.77;;;;;;;4.20;62.18;101666.74;1836121;78;21075;-54
2022/01/17 08:32:46;;;;;;;3.45;0.88;;;;;;;4.26;62.26;101671.13;1836326;78;21475;-55
2022/01/17 08:35:15;;;;;;;3.25;1.35;;;;;;;4.22;62.30;101674.57;1836183;78;21535;-55
2022/01/17 08:37:44;;;;;;;2.40;1.22;;;;;;;4.12;62.21;101683.25;1836293;78;21512;-55
2022/01/17 08:40:13;;;;;;;1.10;0.62;;;;;;;4.08;62.36;101666.73;1836275;78;21473;-55
2022/01/17 08:42:42;;;;;;;5.40;1.82;;;;;;;4.08;62.54;101653.70;1836265;78;21094;-55
2022/01/17 08:45:13;;;;;;;2.35;1.55;;;;;;;4.02;62.38;101635.02;1836283;78;21127;-55
2022/01/17 08:47:49;;;;;;;5.90;1.77;;;;;;;3.97;62.31;101633.27;1836283;78;21035;-55
2022/01/17 08:50:17;;;;;;;0.30;0.30;;;;;;;3.94;62.29;101614.56;1836057;78;21047;-55
2022/01/17 08:52:46;;;;;;;1.80;0.90;;;;;;;3.90;62.27;101606.75;1836050;78;21051;-55
2022/01/17 08:55:16;;;;;;;3.35;1.70;;;;;;;3.86;62.16;101596.31;1836235;78;21141;-55
2022/01/17 08:57:46;;;;;;;4.17;0.98;;;;;;;3.85;61.84;101596.30;1836171;78;21059;-56
2022/01/17 09:00:17;;;;;;;1.77;1.30;;;;;;;3.88;61.84;101582.43;1836182;78;21122;-55
2022/01/17 09:02:46;;;;;;;3.55;1.70;;;;;;;4.16;61.54;101576.81;1836167;78;21047;-55
2022/01/17 09:05:15;;;;;;;3.77;1.52;;;;;;;4.30;60.99;101580.72;1836060;78;21556;-55
2022/01/17 09:07:44;;;;;;;1.65;0.93;;;;;;;4.27;60.96;101576.39;1836358;78;21489;-55
2022/01/17 09:10:12;;;;;;;4.08;1.60;;;;;;;4.31;61.05;101568.13;1836380;78;21133;-55
2022/01/17 09:12:41;;;;;;;5.03;1.47;;;;;;;4.34;60.83;101557.72;1836174;78;21458;-55
2022/01/17 09:15:10;;;;;;;8.35;1.77;;;;;;;4.35;61.09;101554.22;1836149;78;21047;-55
2022/01/17 09:17:39;;;;;;;4.92;1.45;;;;;;;4.37;61.25;101545.55;1836079;78;21486;-56
2022/01/17 09:20:09;;;;;;;2.95;1.87;;;;;;;4.39;61.50;101541.61;1836165;78;21531;-55
2022/01/17 09:22:38;;;;;;;2.60;1.10;;;;;;;4.39;61.42;101536.39;1840878;77;21156;-55
2022/01/17 09:25:08;;;;;;;1.80;1.07;;;;;;;4.41;61.56;101543.81;1842102;78;21118;-55
2022/01/17 09:27:38;;;;;;;5.58;1.15;;;;;;;4.50;61.64;101543.80;1842055;78;21081;-55
2022/01/17 09:30:10;;;;;;;2.17;1.30;;;;;;;4.67;61.57;101537.66;1841418;78;21059;-55
2022/01/17 09:32:39;;;;;;;2.37;1.15;;;;;;;4.88;61.30;101538.92;1842129;78;21054;-55
2022/01/17 09:35:09;;;;;;;2.25;1.17;;;;;;;5.12;61.20;101516.23;1842258;78;21497;-55
2022/01/17 09:37:38;;;;;;;2.42;0.90;;;;;;;5.55;60.22;101513.39;1842258;78;21117;-55
2022/01/17 09:40:08;;;;;;;1.22;1.00;;;;;;;5.61;59.98;101514.24;1842318;78;21547;-55
2022/01/17 09:42:38;;;;;;;2.37;0.60;;;;;;;5.59;60.06;101507.30;1842105;77;21015;-55
2022/01/17 09:45:10;;;;;;;2.08;0.90;;;;;;;5.60;59.94;101503.80;1842139;78;21051;-55
2022/01/17 09:47:40;;;;;;;2.22;0.72;;;;;;;5.59;59.81;101500.33;1842078;78;21023;-55
2022/01/17 09:50:12;;;;;;;1.27;0.55;;;;;;;5.65;59.78;101490.72;1842035;78;21120;-55
2022/01/17 09:52:50;;;;;;;0.75;0.72;;;;;;;5.71;59.37;101486.30;1842016;78;21059;-55
2022/01/17 09:55:24;;;;;;;3.35;0.80;;;;;;;6.15;57.99;101465.95;1842081;78;21019;-55
2022/01/17 09:58:02;;;;;;;1.10;0.60;;;;;;;6.96;55.86;101450.67;1842076;78;21031;-55
2022/01/17 10:00:33;;;;;;;2.70;0.70;;;;;;;6.78;55.95;101429.10;1841949;78;21596;-55
2022/01/17 10:03:05;;;;;;;0.98;0.70;;;;;;;6.49;56.14;101442.06;1842035;78;21129;-55
2022/01/17 10:05:36;;;;;;;0.65;0.45;;;;;;;6.32;56.28;101431.78;1841938;78;21043;-55
2022/01/17 10:08:07;;;;;;;1.47;0.80;;;;;;;6.33;56.89;101432.22;1842095;78;21132;-55
2022/01/17 10:10:39;;;;;;;2.85;0.85;;;;;;;6.61;55.57;101409.68;1841723;78;21055;-55
2022/01/17 10:13:10;;;;;;;1.00;0.53;;;;;;;6.68;55.67;101413.96;1841975;78;21074;-55
2022/01/17 10:15:48;;;;;;;3.37;1.45;;;;;;;6.90;54.90;101427.65;1842177;78;21473;-55
2022/01/17 10:18:36;;;;;;;2.80;0.90;;;;;;;6.96;54.01;101428.41;1841775;78;21031;-55
2022/01/17 10:21:21;;;;;;;4.47;1.00;;;;;;;6.93;54.04;101421.04;1842032;78;21050;-55
2022/01/17 10:24:21;;;;;;;2.35;0.98;;;;;;;6.89;54.18;101386.18;1822783;77;21138;-55
2022/01/17 10:34:54;;;;;;;1.77;0.60;;;;;;;6.06;56.77;101403.28;1820220;79;21180;-55
2022/01/17 10:37:26;;;;;;;1.70;0.90;;;;;;;5.96;57.32;101401.21;1820234;79;21046;-55
2022/01/17 10:40:03;;;;;;;1.40;0.80;;;;;;;5.92;57.96;101396.83;1820227;79;21128;-55
2022/01/17 10:42:41;;;;;;;1.35;0.65;;;;;;;5.98;58.13;101386.37;1820341;79;21043;-55
2022/01/17 10:45:11;;;;;;;1.65;0.70;;;;;;;6.05;58.19;101391.97;1820246;78;21477;-55
2022/01/17 10:47:43;;;;;;;4.50;1.00;;;;;;;6.14;58.31;101374.88;1814585;78;21046;-55
2022/01/17 10:50:20;;;;;;;1.72;0.65;;;;;;;6.17;58.29;101360.45;1820307;79;21086;-55
2022/01/17 10:52:51;;;;;;;4.55;0.70;;;;;;;6.10;57.41;101374.91;1819896;78;21153;-55
2022/01/17 10:55:24;;;;;;;5.35;0.80;;;;;;;6.08;57.76;101368.39;1820247;78;21055;-55
2022/01/17 10:57:56;;;;;;;1.72;0.57;;;;;;;6.06;57.88;101370.16;1820020;79;21015;-55
2022/01/17 11:00:33;;;;;;;4.08;1.20;;;;;;;6.07;58.14;101374.52;1820174;79;21106;-55
2022/01/17 11:03:08;;;;;;;2.27;0.90;;;;;;;6.07;58.17;101371.02;1820403;79;21094;-55
2022/01/17 11:05:39;;;;;;;0.60;0.60;;;;;;;6.08;57.93;101365.77;1820205;79;21473;-55
2022/01/17 11:08:08;;;;;;;5.33;0.85;;;;;;;6.04;57.39;101360.16;1820200;79;21054;-55
2022/01/17 11:10:40;;;;;;;1.27;0.60;;;;;;;6.04;57.15;101337.94;1820270;79;21179;-56
2022/01/17 11:13:11;;;;;;;5.37;1.27;;;;;;;6.09;57.21;101345.75;1820219;78;21588;-55
2022/01/17 11:15:41;;;;;;;2.15;0.60;;;;;;;6.21;56.82;101334.27;1820179;79;21051;-55
2022/01/17 11:18:17;;;;;;;2.37;0.72;;;;;;;6.33;56.24;101341.98;1820278;79;21047;-54
2022/01/17 11:20:42;;;;;;;1.55;0.82;;;;;;;6.40;56.30;101338.42;1819758;78;21059;-55
2022/01/17 11:23:10;;;;;;;1.50;0.75;;;;;;;6.35;55.64;101357.22;1832885;78;21141;-55
2022/01/17 11:25:51;;;;;;;1.90;0.53;;;;;;;6.21;56.00;101357.81;1847671;78;21129;-55
2022/01/17 11:28:18;;;;;;;1.50;0.68;;;;;;;6.06;55.94;101340.09;1845385;78;21078;-55
2022/01/17 11:30:44;;;;;;;2.62;0.88;;;;;;;5.94;56.38;101346.30;1846643;78;21078;-55
2022/01/17 11:33:13;;;;;;;2.37;1.02;;;;;;;5.82;56.84;101346.41;1847473;78;21537;-55
2022/01/17 11:35:45;;;;;;;5.53;0.88;;;;;;;5.70;57.15;101332.14;1847630;78;21509;-55
2022/01/17 11:38:15;;;;;;;2.80;0.90;;;;;;;5.63;57.43;101331.80;1847809;77;21031;-54
2022/01/17 11:40:44;;;;;;;2.30;0.80;;;;;;;5.61;57.90;101340.50;1847585;78;21540;-55
2022/01/17 11:43:33;;;;;;;4.22;1.05;;;;;;;5.65;58.15;101338.73;1847689;78;21046;-55
2022/01/17 11:45:58;;;;;;;1.40;1.10;;;;;;;5.67;58.37;101326.52;1847264;78;21086;-55
2022/01/17 11:48:30;;;;;;;0.80;0.70;;;;;;;5.66;58.66;101327.83;1847660;78;21152;-55
2022/01/17 11:51:01;;;;;;;1.67;0.85;;;;;;;5.64;59.33;101351.35;1847536;78;21055;-55
2022/01/17 11:53:33;;;;;;;2.67;0.90;;;;;;;5.54;60.63;101351.02;1845496;78;21508;-56
2022/01/17 11:56:01;;;;;;;1.85;1.00;;;;;;;5.18;63.19;101379.13;1847530;78;21042;-56
2022/01/17 11:58:34;;;;;;;3.08;1.20;;;;;;;4.68;64.98;101377.22;1847534;78;21485;-53
2022/01/17 12:01:17;;;;;;;1.52;1.07;;;;;;;4.29;67.08;101391.28;1847571;78;21081;-54
2022/01/17 12:03:51;;;;;;;2.20;1.10;;;;;;;3.86;68.74;101365.73;1847579;78;21121;-53
2022/01/17 12:06:33;;;;;;;3.52;1.67;;;;;;;3.61;69.73;101360.11;1847561;78;21031;-55
2022/01/17 12:09:21;;;;;;;3.80;1.25;;;;;;;3.53;69.60;101343.64;1847632;78;21043;-55
2022/01/17 12:11:59;;;;;;;3.12;1.20;;;;;;;3.51;70.82;101334.96;1847545;78;21074;-54